Time;durP1;ratioP1;P1;durP2;ratioP2;P2;SDS_P1;SDS_P2;PMS_P1;PMS_P2;Temp;Humidity;BMP_temperature;BMP_pressure;BME280_temperature;BME280_humidity;BME280_pressure;Samples;Min_cycle;Max_cycle;Signal;HPM_P1;HPM_P2
2022/04/19 00:00:14;;;;;;;7.18;3.40;;;;;;;5.44;65.32;96340.13;4971661;28;20046;-66
2022/04/19 00:02:39;;;;;;;6.32;3.28;;;;;;;5.27;66.65;96336.53;4971163;28;20027;-66
2022/04/19 00:05:05;;;;;;;5.40;3.08;;;;;;;5.07;68.55;96338.25;4972236;28;20023;-66
2022/04/19 00:07:31;;;;;;;4.35;2.78;;;;;;;4.86;68.92;96335.66;4970142;28;20035;-67
2022/04/19 00:09:57;;;;;;;4.60;3.05;;;;;;;4.84;68.49;96340.59;4972261;28;20050;-67
2022/04/19 00:12:22;;;;;;;5.70;3.10;;;;;;;4.77;69.76;96334.94;4972103;28;20046;-67
2022/04/19 00:14:48;;;;;;;7.05;3.17;;;;;;;4.66;69.52;96331.88;4975687;28;20035;-66
2022/04/19 00:17:14;;;;;;;6.55;3.22;;;;;;;4.60;69.57;96328.59;4975403;28;20027;-66
2022/04/19 00:19:40;;;;;;;5.10;3.05;;;;;;;4.56;70.52;96324.19;4977888;28;20058;-65
2022/04/19 00:22:05;;;;;;;5.70;3.15;;;;;;;4.26;72.90;96318.13;4976062;28;20082;-67
2022/04/19 00:24:31;;;;;;;5.22;3.20;;;;;;;4.18;72.92;96320.59;4980862;28;20054;-68
2022/04/19 00:26:56;;;;;;;4.88;3.13;;;;;;;4.22;73.55;96320.72;4975850;28;20030;-67
2022/04/19 00:29:21;;;;;;;4.20;3.10;;;;;;;4.33;74.15;96318.38;4986457;28;20035;-68
2022/04/19 00:31:47;;;;;;;4.55;3.00;;;;;;;4.29;72.99;96318.25;4985542;28;20034;-67
2022/04/19 00:34:12;;;;;;;5.07;2.97;;;;;;;4.35;73.41;96319.63;4968938;28;20547;-66
2022/04/19 00:36:38;;;;;;;5.03;2.70;;;;;;;4.55;72.34;96314.47;4984791;28;20034;-65
2022/04/19 00:39:04;;;;;;;5.82;3.03;;;;;;;4.53;72.49;96314.78;4985555;28;20424;-67
2022/04/19 00:41:30;;;;;;;4.28;3.13;;;;;;;4.42;72.24;96319.06;4985656;28;20030;-66
2022/04/19 00:43:55;;;;;;;4.43;2.92;;;;;;;4.54;72.89;96310.19;4985467;28;20035;-68
2022/04/19 00:46:21;;;;;;;10.15;2.88;;;;;;;4.53;73.32;96308.59;4985555;28;20090;-67
2022/04/19 00:48:46;;;;;;;6.55;3.20;;;;;;;4.39;73.03;96301.56;4987076;28;20031;-66
2022/04/19 00:51:13;;;;;;;6.50;3.33;;;;;;;4.36;73.78;96306.88;4980867;28;20039;-67
2022/04/19 00:53:40;;;;;;;8.07;3.65;;;;;;;4.60;73.35;96300.69;4976968;28;20122;-66
2022/04/19 00:56:07;;;;;;;5.05;3.20;;;;;;;4.64;72.93;96304.31;4975492;28;20085;-67
2022/04/19 00:58:33;;;;;;;4.57;2.80;;;;;;;4.67;72.45;96298.22;4974760;28;20027;-66
2022/04/19 01:01:00;;;;;;;5.60;3.17;;;;;;;4.64;72.33;96295.38;4973893;28;20550;-66
2022/04/19 01:03:25;;;;;;;5.40;2.83;;;;;;;4.66;73.17;96290.41;4975021;28;20070;-67
2022/04/19 01:05:53;;;;;;;5.47;3.03;;;;;;;4.64;73.17;96289.97;4973831;28;20069;-66
2022/04/19 01:08:20;;;;;;;5.10;2.70;;;;;;;4.51;73.31;96291.88;4990197;28;20038;-67
2022/04/19 01:10:46;;;;;;;4.50;3.20;;;;;;;4.25;74.73;96292.97;4975011;28;20049;-67
2022/04/19 01:13:18;;;;;;;6.15;3.00;;;;;;;4.02;73.91;96290.63;4974990;28;20031;-67
2022/04/19 01:15:47;;;;;;;3.35;2.60;;;;;;;3.96;75.85;96280.31;4973688;28;20107;-66
2022/04/19 01:18:14;;;;;;;3.55;2.70;;;;;;;3.86;75.82;96291.59;4975123;28;20042;-68
2022/04/19 01:20:41;;;;;;;4.63;2.97;;;;;;;3.34;78.51;96293.56;4974949;28;20049;-68
2022/04/19 01:23:07;;;;;;;5.55;3.13;;;;;;;3.20;78.84;96293.03;4973674;28;20031;-65
2022/04/19 01:25:33;;;;;;;6.43;2.72;;;;;;;3.15;79.76;96285.91;4983284;28;20027;-66
2022/04/19 01:27:58;;;;;;;4.78;3.15;;;;;;;3.24;80.39;96288.53;4989432;28;20031;-66
2022/04/19 01:30:23;;;;;;;5.55;2.97;;;;;;;3.60;80.15;96296.09;4978628;28;20058;-67
2022/04/19 01:32:49;;;;;;;6.00;2.80;;;;;;;3.82;78.63;96281.41;4975007;28;20027;-65
2022/04/19 01:35:19;;;;;;;5.57;3.00;;;;;;;3.88;78.63;96279.28;4975180;28;20031;-67
2022/04/19 01:37:49;;;;;;;6.82;3.22;;;;;;;3.95;77.70;96276.03;4961266;28;20031;-67
2022/04/19 01:40:16;;;;;;;5.22;3.47;;;;;;;3.63;78.19;96278.38;4973576;28;20058;-67
2022/04/19 01:42:45;;;;;;;4.70;3.40;;;;;;;2.84;83.67;96273.50;4974623;28;20066;-68
2022/04/19 01:45:12;;;;;;;5.07;3.45;;;;;;;2.42;88.14;96267.19;4974406;28;20038;-67
2022/04/19 01:47:39;;;;;;;5.32;3.33;;;;;;;2.71;87.37;96279.94;4955221;28;20122;-67
2022/04/19 01:50:09;;;;;;;7.35;3.60;;;;;;;2.93;86.40;96273.47;4974471;28;20038;-67
2022/04/19 01:52:35;;;;;;;5.88;3.65;;;;;;;3.15;85.67;96272.38;4976673;28;20419;-66
2022/04/19 01:55:01;;;;;;;6.38;3.70;;;;;;;3.23;84.87;96271.53;4990266;28;20057;-66
2022/04/19 01:57:27;;;;;;;6.97;3.65;;;;;;;3.32;84.54;96274.16;4980526;28;20439;-67
2022/04/19 01:59:53;;;;;;;5.40;3.50;;;;;;;3.41;83.80;96271.41;4975304;28;20034;-67
2022/04/19 02:02:18;;;;;;;6.28;3.63;;;;;;;3.39;83.30;96268.25;4975209;28;20035;-67
2022/04/19 02:04:44;;;;;;;6.70;3.95;;;;;;;3.11;83.35;96270.66;4972894;28;20506;-68
2022/04/19 02:07:09;;;;;;;5.55;3.67;;;;;;;2.94;85.54;96258.81;4973263;28;20031;-67
2022/04/19 02:09:35;;;;;;;5.55;3.47;;;;;;;2.82;85.98;96262.22;4972754;28;20042;-67
2022/04/19 02:12:00;;;;;;;5.05;3.17;;;;;;;2.87;87.14;96255.84;4973627;28;20035;-67
2022/04/19 02:14:26;;;;;;;5.53;3.45;;;;;;;3.01;86.85;96256.41;4969936;28;20039;-66
2022/04/19 02:16:53;;;;;;;5.32;3.75;;;;;;;3.08;86.21;96249.66;4972936;28;20031;-68
2022/04/19 02:19:18;;;;;;;5.82;3.33;;;;;;;3.16;85.86;96254.22;4974291;28;20470;-67
2022/04/19 02:21:45;;;;;;;5.63;3.25;;;;;;;3.18;85.57;96246.56;4972346;28;20023;-66
2022/04/19 02:24:10;;;;;;;5.57;3.33;;;;;;;3.08;85.04;96249.66;4972354;28;20038;-66
2022/04/19 02:26:36;;;;;;;6.97;3.53;;;;;;;2.87;83.52;96250.44;4973255;28;20488;-65
2022/04/19 02:29:01;;;;;;;7.15;4.20;;;;;;;2.62;84.22;96255.66;4973922;28;20145;-63
2022/04/19 02:31:27;;;;;;;6.63;4.00;;;;;;;2.72;87.05;96248.28;4970694;28;20559;-65
2022/04/19 02:33:54;;;;;;;4.90;3.45;;;;;;;2.76;87.83;96249.25;4974971;28;20436;-68
2022/04/19 02:36:21;;;;;;;5.65;3.35;;;;;;;2.83;88.19;96247.59;4972063;28;20090;-68
2022/04/19 02:38:46;;;;;;;9.38;3.88;;;;;;;2.99;87.50;96247.81;4972404;28;20034;-68
2022/04/19 02:41:11;;;;;;;5.75;3.63;;;;;;;3.01;86.67;96245.56;4972399;28;20031;-67
2022/04/19 02:43:38;;;;;;;5.30;3.70;;;;;;;3.00;87.08;96254.00;4973647;28;20041;-68
2022/04/19 02:46:04;;;;;;;5.55;3.58;;;;;;;3.12;85.75;96247.91;4972925;28;20042;-66
2022/04/19 02:48:30;;;;;;;5.47;3.30;;;;;;;3.09;86.03;96248.53;4973788;28;20488;-70
2022/04/19 02:50:56;;;;;;;8.68;3.78;;;;;;;3.03;85.92;96235.22;4973976;28;20058;-66
2022/04/19 02:53:22;;;;;;;6.32;3.53;;;;;;;3.02;86.08;96241.72;4974254;28;20031;-67
2022/04/19 02:55:48;;;;;;;5.43;3.22;;;;;;;2.90;85.29;96240.84;4971311;28;20055;-67
2022/04/19 02:58:13;;;;;;;5.72;3.75;;;;;;;2.70;85.84;96242.41;4993319;28;20026;-67
2022/04/19 03:00:39;;;;;;;5.85;3.83;;;;;;;2.70;87.34;96245.13;4980843;28;20030;-67
2022/04/19 03:03:05;;;;;;;4.43;3.17;;;;;;;2.64;87.38;96247.22;4974549;28;20035;-66
2022/04/19 03:05:33;;;;;;;10.27;3.58;;;;;;;2.60;88.70;96244.38;4973042;28;20041;-65
2022/04/19 03:07:59;;;;;;;6.15;3.63;;;;;;;2.69;88.81;96241.63;4973371;28;20034;-66
2022/04/19 03:10:24;;;;;;;5.43;3.30;;;;;;;2.74;88.10;96237.94;4971522;28;20058;-66
2022/04/19 03:12:52;;;;;;;5.82;3.88;;;;;;;2.66;87.45;96237.66;4976981;28;20058;-66
2022/04/19 03:15:18;;;;;;;5.97;3.40;;;;;;;2.37;87.45;96241.13;4976895;28;20041;-66
2022/04/19 03:17:44;;;;;;;7.47;3.95;;;;;;;2.06;88.76;96234.09;4977864;28;20376;-65
2022/04/19 03:20:11;;;;;;;5.95;3.67;;;;;;;1.95;89.40;96240.19;4973430;28;20074;-65
2022/04/19 03:28:04;;;;;;;6.68;4.03;;;;;;;2.10;90.74;96234.25;4972980;28;20080;-68
2022/04/19 03:30:30;;;;;;;7.95;3.83;;;;;;;2.26;91.61;96234.50;4973324;28;20486;-67
2022/04/19 03:32:56;;;;;;;7.68;4.13;;;;;;;2.39;90.70;96233.50;4972841;28;20483;-65
2022/04/19 03:35:21;;;;;;;6.18;4.05;;;;;;;2.13;90.90;96228.19;4972703;28;20169;-65
2022/04/19 03:37:46;;;;;;;6.25;3.53;;;;;;;2.17;91.12;96229.13;4970957;28;20054;-66
2022/04/19 03:40:12;;;;;;;6.07;3.50;;;;;;;2.25;91.57;96230.22;4969363;28;20112;-65
2022/04/19 03:42:40;;;;;;;9.50;3.80;;;;;;;1.81;92.82;96232.25;4973044;28;20031;-66
2022/04/19 03:45:07;;;;;;;6.50;3.65;;;;;;;1.40;97.38;96236.28;4976792;28;20050;-65
2022/04/19 03:47:34;;;;;;;7.85;4.40;;;;;;;1.20;98.33;96221.53;4976758;28;20031;-68
2022/04/19 03:50:00;;;;;;;6.35;4.50;;;;;;;1.30;99.57;96219.31;4978419;28;20058;-64
2022/04/19 03:52:26;;;;;;;6.03;4.10;;;;;;;1.49;100.00;96224.34;4984195;28;20114;-65
2022/04/19 03:54:52;;;;;;;7.22;4.50;;;;;;;1.71;97.73;96226.09;4981689;28;20065;-66
2022/04/19 03:57:18;;;;;;;8.52;4.38;;;;;;;1.88;96.67;96224.47;4993896;28;20019;-65
2022/04/19 03:59:44;;;;;;;8.98;4.63;;;;;;;1.92;95.86;96223.47;4974258;28;20039;-65
2022/04/19 04:02:10;;;;;;;6.55;4.20;;;;;;;1.94;95.82;96225.88;4972414;28;20335;-64
2022/04/19 04:04:36;;;;;;;6.57;4.07;;;;;;;1.84;94.88;96229.72;4972632;28;20038;-66
2022/04/19 04:07:06;;;;;;;9.27;4.60;;;;;;;1.33;96.72;96225.97;4968483;28;20042;-66
2022/04/19 04:09:32;;;;;;;6.97;4.55;;;;;;;0.98;99.83;96234.06;4973749;28;20031;-65
2022/04/19 04:12:09;;;;;;;7.43;4.10;;;;;;;0.72;98.16;96231.31;4981347;28;20085;-65
2022/04/19 04:14:35;;;;;;;7.75;4.40;;;;;;;0.66;100.00;96230.66;4981916;28;20045;-65
2022/04/19 04:17:02;;;;;;;6.60;4.05;;;;;;;0.99;100.00;96232.13;4975595;28;20045;-66
2022/04/19 04:19:27;;;;;;;8.70;4.25;;;;;;;1.27;100.00;96233.44;4970690;28;20035;-65
2022/04/19 04:21:53;;;;;;;6.25;4.00;;;;;;;1.37;99.77;96228.81;4972000;28;20054;-65
2022/04/19 04:24:19;;;;;;;5.85;3.65;;;;;;;1.34;98.14;96227.56;4971461;28;20030;-67
2022/04/19 04:26:45;;;;;;;6.82;4.28;;;;;;;1.16;99.39;96228.69;4970829;28;20490;-65
2022/04/19 04:29:10;;;;;;;6.43;4.38;;;;;;;0.95;100.00;96232.78;4972362;28;20166;-67
2022/04/19 04:31:36;;;;;;;6.70;4.20;;;;;;;0.98;100.00;96231.34;4972098;28;20035;-67
2022/04/19 04:34:02;;;;;;;7.07;4.45;;;;;;;1.01;100.00;96240.72;4972275;28;20034;-66
2022/04/19 04:36:27;;;;;;;6.40;4.35;;;;;;;1.12;100.00;96239.31;4969541;28;20038;-67
2022/04/19 04:38:53;;;;;;;8.57;4.97;;;;;;;1.29;100.00;96231.19;4978838;28;20058;-67
2022/04/19 04:41:18;;;;;;;7.28;4.30;;;;;;;1.39;100.00;96242.78;4972890;28;20042;-67
2022/04/19 04:43:43;;;;;;;10.20;4.75;;;;;;;1.26;100.00;96242.66;4973697;28;20042;-66
2022/04/19 04:51:38;;;;;;;7.65;4.38;;;;;;;0.83;99.11;96229.91;4969115;28;20118;-65
2022/04/19 04:54:03;;;;;;;11.40;5.35;;;;;;;0.80;100.00;96241.31;4972063;28;20520;-66
2022/04/19 04:56:28;;;;;;;7.60;4.57;;;;;;;0.95;100.00;96235.50;4971955;28;20061;-66
2022/04/19 04:58:54;;;;;;;10.63;4.97;;;;;;;1.22;100.00;96244.38;4968909;28;20038;-65
2022/04/19 05:01:19;;;;;;;6.80;4.43;;;;;;;1.50;100.00;96242.16;4974312;28;20757;-66
2022/04/19 05:03:45;;;;;;;7.72;4.50;;;;;;;1.73;98.87;96239.28;4975057;28;20045;-66
2022/04/19 05:06:10;;;;;;;7.88;4.55;;;;;;;1.95;97.63;96238.25;4974592;28;20031;-66
2022/04/19 05:08:36;;;;;;;6.47;4.22;;;;;;;2.07;96.08;96235.69;4982046;28;20039;-66
2022/04/19 05:11:02;;;;;;;6.97;4.15;;;;;;;2.38;96.46;96239.25;4989255;28;20054;-66
2022/04/19 05:13:27;;;;;;;7.40;4.53;;;;;;;3.01;92.55;96242.88;4979190;28;20035;-66
2022/04/19 05:15:53;;;;;;;6.03;3.58;;;;;;;3.70;87.48;96243.44;4974159;28;20031;-66
2022/04/19 05:18:18;;;;;;;6.53;3.55;;;;;;;4.01;82.65;96250.31;4976040;28;20035;-68
2022/04/19 05:20:44;;;;;;;7.63;4.25;;;;;;;3.83;81.31;96250.50;4975194;28;20066;-68
2022/04/19 05:23:09;;;;;;;8.48;4.90;;;;;;;3.52;83.71;96250.13;4957843;28;20023;-67
2022/04/19 05:25:35;;;;;;;7.28;4.25;;;;;;;3.90;83.19;96249.94;4973106;28;20522;-66
2022/04/19 05:28:00;;;;;;;7.07;4.35;;;;;;;4.75;79.36;96251.19;4990476;28;20488;-68
2022/04/19 05:30:26;;;;;;;6.72;3.65;;;;;;;5.98;73.53;96252.03;4972366;28;20073;-68
2022/04/19 05:32:51;;;;;;;9.50;3.35;;;;;;;7.66;66.83;96252.50;4976296;28;20057;-67
2022/04/19 05:35:17;;;;;;;5.45;2.97;;;;;;;9.17;60.30;96249.69;4976002;28;20034;-68
2022/04/19 05:37:42;;;;;;;7.53;3.00;;;;;;;11.05;52.42;96256.81;4983113;28;20105;-67
2022/04/19 05:40:09;;;;;;;4.82;2.63;;;;;;;12.30;48.76;96253.16;4982405;28;20035;-67
2022/04/19 05:42:34;;;;;;;11.32;6.25;;;;;;;10.87;53.17;96258.66;4973938;28;20034;-67
2022/04/19 05:44:59;;;;;;;5.90;3.30;;;;;;;10.38;54.06;96260.56;4973830;28;20034;-66
2022/04/19 05:47:25;;;;;;;6.95;3.72;;;;;;;10.69;50.49;96269.44;4973644;28;20030;-68
2022/04/19 05:49:51;;;;;;;14.48;9.57;;;;;;;9.62;54.70;96267.09;4974343;28;20039;-66
2022/04/19 05:52:17;;;;;;;9.57;6.25;;;;;;;6.35;66.28;96268.16;4973969;28;20102;-67
2022/04/19 05:54:43;;;;;;;7.82;4.45;;;;;;;6.97;67.71;96263.84;4972996;28;20030;-67
2022/04/19 05:57:11;;;;;;;5.78;4.32;;;;;;;8.61;61.96;96264.81;4973446;28;20065;-67
2022/04/19 05:59:36;;;;;;;5.32;2.90;;;;;;;10.46;55.06;96261.41;4971417;28;20039;-67
2022/04/19 06:04:57;;;;;;;5.75;3.42;;;;;;;12.28;47.92;96263.75;4972582;28;20034;-67
2022/04/19 06:07:25;;;;;;;8.10;3.35;;;;;;;12.49;48.78;96271.22;4973792;28;20054;-67
2022/04/19 06:09:50;;;;;;;11.85;3.10;;;;;;;14.42;42.24;96263.03;4985204;28;20098;-68
2022/04/19 06:12:16;;;;;;;9.30;3.03;;;;;;;15.43;39.81;96263.09;4972892;28;20102;-68
2022/04/19 06:14:41;;;;;;;6.80;2.60;;;;;;;15.26;40.02;96270.34;4968865;28;20490;-68
2022/04/19 06:17:07;;;;;;;5.57;3.40;;;;;;;16.50;36.98;96266.59;4973210;28;20026;-68
2022/04/19 06:19:33;;;;;;;4.20;2.75;;;;;;;15.72;38.36;96262.78;4973801;28;20037;-68
2022/04/19 06:21:59;;;;;;;3.53;2.08;;;;;;;14.64;39.56;96267.28;4973574;28;20373;-66
2022/04/19 06:24:25;;;;;;;4.63;2.75;;;;;;;14.80;39.74;96264.03;4972518;28;20365;-67
2022/04/19 06:26:51;;;;;;;5.07;2.95;;;;;;;16.43;37.59;96258.41;4973012;28;20400;-67
2022/04/19 06:29:16;;;;;;;4.43;2.22;;;;;;;17.19;35.89;96258.84;4971641;28;20118;-68
2022/04/19 06:31:43;;;;;;;7.57;2.63;;;;;;;17.74;33.77;96244.84;4972750;28;20043;-67
2022/04/19 06:34:09;;;;;;;31.02;9.07;;;;;;;16.61;36.24;96244.34;4973302;28;20043;-67
2022/04/19 06:36:35;;;;;;;8.80;2.33;;;;;;;18.16;33.91;96247.97;4972697;28;20034;-67
2022/04/19 06:39:01;;;;;;;7.53;2.45;;;;;;;17.39;34.15;96252.59;4973219;28;20388;-67
2022/04/19 06:41:26;;;;;;;6.13;2.70;;;;;;;18.27;33.85;96248.53;4973403;28;20432;-67
2022/04/19 06:43:52;;;;;;;13.15;2.20;;;;;;;19.45;31.70;96250.56;4973035;28;20054;-67
2022/04/19 06:46:18;;;;;;;5.53;2.38;;;;;;;18.52;31.63;96248.00;4971210;28;20037;-67
2022/04/19 06:48:43;;;;;;;5.57;2.38;;;;;;;18.70;32.86;96253.13;4973298;28;20050;-65
2022/04/19 06:51:09;;;;;;;4.57;2.03;;;;;;;19.00;31.09;96250.53;4973558;28;20038;-66
2022/04/19 06:53:37;;;;;;;6.80;2.35;;;;;;;18.69;33.22;96257.13;4974143;28;20113;-66
2022/04/19 06:56:04;;;;;;;6.78;2.92;;;;;;;13.09;44.29;96261.47;4972526;28;20372;-66
2022/04/19 06:58:30;;;;;;;6.90;3.00;;;;;;;14.79;41.98;96259.69;4972970;28;20407;-65
2022/04/19 07:00:56;;;;;;;7.40;2.92;;;;;;;16.00;38.72;96265.25;4967960;28;20026;-66
2022/04/19 07:03:24;;;;;;;5.20;3.83;;;;;;;16.27;37.33;96261.00;4976455;28;20586;-66
2022/04/19 07:05:50;;;;;;;6.88;3.15;;;;;;;12.83;41.82;96262.66;4978950;28;20030;-66
2022/04/19 07:08:15;;;;;;;7.75;4.53;;;;;;;14.10;39.64;96264.00;4977608;28;20094;-66
2022/04/19 07:10:41;;;;;;;5.72;2.67;;;;;;;11.63;46.37;96265.41;4976187;28;20058;-65
2022/04/19 07:13:07;;;;;;;5.32;3.15;;;;;;;14.17;41.13;96263.97;4974041;28;20407;-65
2022/04/19 07:15:32;;;;;;;5.00;3.33;;;;;;;13.51;42.65;96253.59;4968385;28;20035;-65
2022/04/19 07:17:57;;;;;;;6.63;3.03;;;;;;;16.10;38.11;96254.47;4972350;28;20038;-65
2022/04/19 07:28:35;;;;;;;4.40;2.50;;;;;;;17.61;33.77;96241.13;4971643;28;20399;-66
2022/04/19 07:31:03;;;;;;;3.92;2.67;;;;;;;20.13;30.29;96241.63;4971357;28;20030;-66
2022/04/19 07:33:29;;;;;;;6.82;2.70;;;;;;;21.20;28.19;96237.56;4971004;28;20536;-66
2022/04/19 07:35:55;;;;;;;4.78;2.40;;;;;;;21.60;27.12;96231.47;4965944;28;20073;-67
2022/04/19 07:38:21;;;;;;;4.03;2.42;;;;;;;21.40;27.78;96228.94;4964243;28;20051;-67
2022/04/19 07:40:47;;;;;;;6.50;2.78;;;;;;;20.94;28.08;96229.25;4961829;28;20073;-66
2022/04/19 07:43:12;;;;;;;6.93;2.60;;;;;;;20.44;28.16;96225.22;4959993;28;20055;-66
2022/04/19 07:45:38;;;;;;;6.30;3.15;;;;;;;20.14;29.54;96227.28;4961118;28;20034;-67
2022/04/19 07:48:05;;;;;;;6.07;2.63;;;;;;;21.84;27.20;96225.47;4957362;28;20042;-69
2022/04/19 07:50:30;;;;;;;5.43;2.88;;;;;;;19.56;28.67;96221.75;4961430;28;20058;-66
2022/04/19 07:52:56;;;;;;;4.65;2.90;;;;;;;18.95;30.94;96228.84;4961455;28;20043;-66
2022/04/19 07:55:23;;;;;;;4.80;2.78;;;;;;;20.48;29.00;96234.22;4955232;28;20506;-67
2022/04/19 07:57:49;;;;;;;5.88;2.92;;;;;;;21.48;27.67;96227.50;4961220;28;20054;-66
2022/04/19 08:00:17;;;;;;;7.90;3.97;;;;;;;21.49;27.13;96229.06;4952599;28;20047;-67
2022/04/19 08:02:42;;;;;;;7.75;4.82;;;;;;;22.58;26.26;96232.31;4961314;28;20137;-66
2022/04/19 08:05:08;;;;;;;8.43;3.13;;;;;;;23.20;24.82;96228.66;4958732;28;20802;-67
2022/04/19 08:07:35;;;;;;;4.55;2.60;;;;;;;22.70;25.56;96228.63;4966527;28;20078;-67
2022/04/19 08:10:01;;;;;;;5.47;2.70;;;;;;;21.78;26.76;96228.06;4966991;28;20043;-67
2022/04/19 08:12:26;;;;;;;11.85;2.67;;;;;;;22.28;28.31;96220.69;4959378;28;20379;-66
2022/04/19 08:14:52;;;;;;;5.03;2.70;;;;;;;21.47;30.05;96225.19;4961930;28;20049;-66
2022/04/19 08:17:17;;;;;;;12.55;3.20;;;;;;;20.42;30.23;96220.09;4954808;28;20042;-66
2022/04/19 08:19:43;;;;;;;6.10;3.30;;;;;;;19.54;33.01;96221.41;4959646;28;20038;-66
2022/04/19 08:22:08;;;;;;;6.93;3.42;;;;;;;18.10;36.15;96224.75;4955080;28;20461;-65
2022/04/19 08:24:34;;;;;;;5.60;2.83;;;;;;;18.19;36.07;96221.41;4961227;28;20050;-67
2022/04/19 08:27:00;;;;;;;8.45;3.38;;;;;;;17.68;37.30;96216.06;4961055;28;20456;-67
2022/04/19 08:29:25;;;;;;;7.18;3.08;;;;;;;17.86;36.73;96221.28;4957265;28;20496;-67
2022/04/19 08:31:51;;;;;;;7.65;3.55;;;;;;;17.49;37.62;96212.09;4962200;28;20428;-67
2022/04/19 08:34:17;;;;;;;5.63;2.90;;;;;;;17.49;37.78;96221.16;4956498;28;20035;-66
2022/04/19 08:36:43;;;;;;;9.18;3.30;;;;;;;17.81;37.35;96213.44;4965132;28;20043;-67
2022/04/19 08:39:12;;;;;;;7.88;3.15;;;;;;;18.17;36.97;96210.75;4959736;28;20082;-66
2022/04/19 08:41:39;;;;;;;7.05;2.90;;;;;;;18.20;37.20;96212.66;4964717;28;20388;-67
2022/04/19 08:44:05;;;;;;;6.40;3.30;;;;;;;18.41;36.54;96211.41;4959480;28;20129;-66
2022/04/19 08:46:37;;;;;;;6.85;3.10;;;;;;;18.57;35.99;96202.34;4963377;28;20166;-66
2022/04/19 08:49:04;;;;;;;8.50;4.30;;;;;;;18.87;34.84;96206.00;4964334;28;20061;-66
2022/04/19 08:51:35;;;;;;;7.55;4.85;;;;;;;19.49;33.84;96204.03;4978539;28;20053;-66
2022/04/19 08:59:31;;;;;;;7.07;3.47;;;;;;;19.22;34.34;96204.34;4966570;28;20039;-67
2022/04/19 09:01:59;;;;;;;4.63;2.92;;;;;;;19.78;33.65;96196.97;4966119;28;20042;-67
2022/04/19 09:04:25;;;;;;;6.35;2.85;;;;;;;19.33;33.07;96203.31;4959825;28;21029;-66
2022/04/19 09:06:58;;;;;;;10.30;3.35;;;;;;;18.07;35.74;96206.22;4963985;28;20059;-66
2022/04/19 09:09:25;;;;;;;7.18;3.10;;;;;;;20.03;33.44;96204.59;4959807;28;20869;-66
2022/04/19 09:11:53;;;;;;;7.72;3.22;;;;;;;19.31;34.46;96203.72;4964647;28;20047;-67
2022/04/19 09:14:18;;;;;;;5.18;3.03;;;;;;;18.95;35.86;96203.88;4960506;28;20047;-67
2022/04/19 09:16:44;;;;;;;9.15;3.95;;;;;;;18.67;36.14;96197.75;4968693;28;20462;-67
2022/04/19 09:19:25;;;;;;;7.68;3.90;;;;;;;19.36;35.11;96197.66;4973520;28;20050;-67
2022/04/19 09:21:51;;;;;;;6.47;3.17;;;;;;;19.30;34.32;96193.84;4966697;28;20106;-69
2022/04/19 09:24:21;;;;;;;11.48;4.20;;;;;;;19.46;34.54;96195.81;4960111;28;20452;-67
2022/04/19 09:26:48;;;;;;;;;;;;;;;19.11;34.65;96192.75;4964426;28;20435;-67
2022/04/19 09:29:23;;;;;;;6.80;3.40;;;;;;;18.88;35.08;96190.94;4958234;28;19928;-67
2022/04/19 09:31:51;;;;;;;7.85;3.22;;;;;;;18.54;36.03;96189.34;4964203;28;20049;-67
2022/04/19 09:34:30;;;;;;;6.45;3.30;;;;;;;18.50;36.35;96194.19;4958767;28;20058;-67
2022/04/19 09:37:12;;;;;;;8.48;3.63;;;;;;;19.00;35.52;96187.47;4962768;28;20042;-67
2022/04/19 09:39:40;;;;;;;9.35;3.65;;;;;;;18.86;35.83;96183.03;4962409;28;20404;-67
2022/04/19 09:42:08;;;;;;;9.10;3.90;;;;;;;18.08;36.71;96180.09;4958310;28;20649;-66
2022/04/19 09:44:44;;;;;;;5.43;3.30;;;;;;;19.04;35.66;96181.81;4963242;28;20043;-67
2022/04/19 09:47:11;;;;;;;6.47;3.38;;;;;;;19.34;34.51;96175.09;4957599;28;20062;-67
2022/04/19 09:49:47;;;;;;;11.70;5.00;;;;;;;19.72;34.33;96176.47;4963532;28;20093;-67
2022/04/19 09:52:33;;;;;;;11.20;4.35;;;;;;;19.89;34.72;96169.63;4958510;28;20077;-67
2022/04/19 09:55:10;;;;;;;5.68;3.80;;;;;;;19.94;33.53;96171.09;4956700;28;20046;-67
2022/04/19 09:57:39;;;;;;;7.45;3.30;;;;;;;19.89;34.06;96169.63;4961539;28;20045;-66
2022/04/19 10:00:09;;;;;;;6.22;3.65;;;;;;;19.98;33.54;96166.22;4958124;28;20054;-66
2022/04/19 10:08:13;;;;;;;10.07;4.13;;;;;;;19.16;34.74;96158.91;4957845;28;20101;-65
2022/04/19 10:10:40;;;;;;;9.02;4.45;;;;;;;19.02;35.07;96162.06;4962988;28;20074;-68
2022/04/19 10:13:06;;;;;;;7.45;3.78;;;;;;;19.37;34.81;96157.53;4957175;28;20043;-66
2022/04/19 10:15:36;;;;;;;8.30;3.65;;;;;;;19.48;34.29;96149.72;4960820;28;20105;-66
2022/04/19 10:18:06;;;;;;;5.75;3.13;;;;;;;19.44;33.64;96151.81;4961001;28;20073;-66
2022/04/19 10:20:34;;;;;;;6.40;3.75;;;;;;;19.77;32.53;96157.28;4962786;28;20103;-66
2022/04/19 10:23:05;;;;;;;6.97;3.67;;;;;;;19.67;32.28;96150.75;4962931;28;20047;-66
2022/04/19 10:25:40;;;;;;;6.82;4.00;;;;;;;19.75;30.90;96147.81;4961504;28;20112;-66
2022/04/19 10:28:08;;;;;;;7.00;3.42;;;;;;;19.75;31.24;96145.03;4956854;28;20093;-66
2022/04/19 10:30:35;;;;;;;9.63;4.10;;;;;;;19.35;30.31;96143.31;4971594;28;20043;-66
2022/04/19 10:33:01;;;;;;;5.80;3.45;;;;;;;19.08;28.74;96135.31;4963573;28;20043;-66
2022/04/19 10:35:26;;;;;;;8.77;3.85;;;;;;;18.67;30.06;96134.75;4954579;28;20417;-66
2022/04/19 10:38:20;;;;;;;5.60;3.20;;;;;;;18.63;28.38;96139.59;4962450;28;20057;-66
2022/04/19 10:40:50;;;;;;;8.40;3.72;;;;;;;18.97;29.33;96127.28;4961990;28;20106;-66
2022/04/19 10:43:16;;;;;;;5.15;3.08;;;;;;;19.26;27.02;96120.97;4955769;28;20035;-65
2022/04/19 10:45:46;;;;;;;6.88;3.63;;;;;;;18.90;28.99;96125.47;4962568;28;20155;-66
2022/04/19 10:48:14;;;;;;;;;;;;;;;18.78;29.89;96119.81;4958216;28;20600;-67
2022/04/19 10:50:40;;;;;;;6.88;3.53;;;;;;;18.57;30.31;96126.69;4963041;28;19957;-67
2022/04/19 10:53:09;;;;;;;6.13;2.47;;;;;;;18.40;29.37;96114.81;4957721;28;20047;-67
2022/04/19 10:55:40;;;;;;;8.23;3.90;;;;;;;18.93;28.23;96114.72;4961419;28;20046;-67
2022/04/19 11:01:00;;;;;;;11.68;3.60;;;;;;;18.67;30.06;96109.78;4962444;28;20089;-67
2022/04/19 11:03:25;;;;;;;5.60;2.90;;;;;;;18.70;30.08;96106.13;4958094;28;20051;-65
2022/04/19 11:05:52;;;;;;;4.93;2.70;;;;;;;18.22;30.93;96101.38;4961556;28;20045;-66
2022/04/19 11:08:27;;;;;;;5.50;2.90;;;;;;;17.98;32.36;96100.72;4955110;28;20294;-66
2022/04/19 11:11:21;;;;;;;6.40;3.08;;;;;;;17.26;32.84;96097.44;4967379;28;20634;-66
2022/04/19 11:14:25;;;;;;;7.63;3.60;;;;;;;16.99;33.18;96094.78;4961369;28;20094;-66
2022/04/19 11:16:54;;;;;;;8.32;3.78;;;;;;;16.98;33.67;96096.00;4961001;28;20042;-66
2022/04/19 11:19:22;;;;;;;7.30;3.67;;;;;;;16.80;34.75;96102.59;4957014;28;20055;-67
2022/04/19 11:21:56;;;;;;;32.17;12.57;;;;;;;17.14;34.00;96092.53;4961502;28;20049;-67
2022/04/19 11:25:02;;;;;;;8.13;3.72;;;;;;;17.16;33.45;96090.91;4953002;28;20972;-67
2022/04/19 11:27:52;;;;;;;6.13;2.78;;;;;;;17.24;33.13;96077.72;4899522;29;20048;-67
2022/04/19 11:30:18;;;;;;;7.82;3.20;;;;;;;17.20;32.24;96082.53;4960977;28;20049;-67
2022/04/19 11:32:52;;;;;;;7.13;4.20;;;;;;;17.15;32.85;96069.97;4966062;28;20480;-65
2022/04/19 11:35:19;;;;;;;6.35;2.95;;;;;;;16.89;32.59;96076.41;4959559;28;20038;-67
2022/04/19 11:37:45;;;;;;;8.52;4.72;;;;;;;16.62;33.02;96066.97;4964081;28;20042;-67
2022/04/19 11:48:50;;;;;;;5.82;3.13;;;;;;;17.06;33.27;96053.16;4949851;28;20047;-65
2022/04/19 11:51:21;;;;;;;8.82;3.42;;;;;;;17.11;33.32;96046.38;4956570;28;20046;-65
2022/04/19 11:53:49;;;;;;;8.55;3.53;;;;;;;17.42;33.04;96043.38;4961402;28;20050;-67
2022/04/19 11:56:16;;;;;;;5.28;2.58;;;;;;;17.17;33.15;96045.41;4956913;28;20061;-67
2022/04/19 11:58:47;;;;;;;11.45;4.78;;;;;;;17.31;33.37;96046.34;4959427;28;20050;-67
2022/04/19 12:01:14;;;;;;;8.00;3.03;;;;;;;17.31;33.20;96041.59;4956415;28;20050;-66
2022/04/19 12:03:40;;;;;;;6.55;3.42;;;;;;;17.28;33.47;96045.19;4959366;28;20501;-66
2022/04/19 12:06:10;;;;;;;11.95;5.57;;;;;;;17.20;33.22;96044.56;4957080;28;20042;-67
2022/04/19 12:08:42;;;;;;;6.50;3.35;;;;;;;16.42;34.65;96038.50;4961244;28;20058;-67
2022/04/19 12:11:12;;;;;;;6.45;3.33;;;;;;;16.95;34.02;96042.31;4959909;28;20054;-67
2022/04/19 12:13:40;;;;;;;19.55;5.88;;;;;;;16.59;33.89;96037.41;4964999;28;20513;-67
2022/04/19 12:16:09;;;;;;;18.40;5.75;;;;;;;17.17;33.17;96041.88;4959652;28;20038;-67
2022/04/19 12:18:36;;;;;;;8.95;4.13;;;;;;;17.35;33.23;96038.75;4961702;28;20102;-66
2022/04/19 12:21:06;;;;;;;7.93;3.55;;;;;;;17.32;33.52;96036.81;4964489;28;20046;-67